sensor_id;sensor_type;location;lat;lon;timestamp;temperature;humidity
25482;DHT22;13395;50.752;4.268;2023-05-07T00:01:49;16.80;99.90
25482;DHT22;13395;50.752;4.268;2023-05-07T00:04:15;16.70;99.90
25482;DHT22;13395;50.752;4.268;2023-05-07T00:06:40;16.70;99.90
25482;DHT22;13395;50.752;4.268;2023-05-07T00:09:06;16.70;99.90
25482;DHT22;13395;50.752;4.268;2023-05-07T00:11:32;16.70;99.90
25482;DHT22;13395;50.752;4.268;2023-05-07T00:13:57;16.70;99.90
25482;DHT22;13395;50.752;4.268;2023-05-07T00:16:23;16.70;99.90
25482;DHT22;13395;50.752;4.268;2023-05-07T00:18:48;16.70;99.90
25482;DHT22;13395;50.752;4.268;2023-05-07T00:21:14;16.70;99.90
25482;DHT22;13395;50.752;4.268;2023-05-07T00:23:39;16.60;99.90
25482;DHT22;13395;50.752;4.268;2023-05-07T00:26:05;16.60;99.90
25482;DHT22;13395;50.752;4.268;2023-05-07T00:28:30;16.60;99.90
25482;DHT22;13395;50.752;4.268;2023-05-07T00:30:56;16.60;99.90
25482;DHT22;13395;50.752;4.268;2023-05-07T00:33:21;16.60;99.90
25482;DHT22;13395;50.752;4.268;2023-05-07T00:35:47;16.50;99.90
25482;DHT22;13395;50.752;4.268;2023-05-07T00:38:13;16.50;99.90
25482;DHT22;13395;50.752;4.268;2023-05-07T00:40:38;16.50;99.90
25482;DHT22;13395;50.752;4.268;2023-05-07T00:43:04;16.50;99.90
25482;DHT22;13395;50.752;4.268;2023-05-07T00:45:30;16.50;99.90
25482;DHT22;13395;50.752;4.268;2023-05-07T00:47:55;16.40;99.90
25482;DHT22;13395;50.752;4.268;2023-05-07T00:50:22;16.40;99.90
25482;DHT22;13395;50.752;4.268;2023-05-07T00:52:48;16.30;99.90
25482;DHT22;13395;50.752;4.268;2023-05-07T00:55:14;16.30;99.90
25482;DHT22;13395;50.752;4.268;2023-05-07T00:57:40;16.30;99.90
25482;DHT22;13395;50.752;4.268;2023-05-07T01:00:06;16.30;99.90
25482;DHT22;13395;50.752;4.268;2023-05-07T01:02:34;16.20;99.90
25482;DHT22;13395;50.752;4.268;2023-05-07T01:05:00;16.20;99.90
25482;DHT22;13395;50.752;4.268;2023-05-07T01:07:26;16.10;99.90
25482;DHT22;13395;50.752;4.268;2023-05-07T01:09:52;16.00;99.90
25482;DHT22;13395;50.752;4.268;2023-05-07T01:12:17;16.00;99.90
25482;DHT22;13395;50.752;4.268;2023-05-07T01:14:43;16.00;99.90
25482;DHT22;13395;50.752;4.268;2023-05-07T01:17:08;15.90;99.90
25482;DHT22;13395;50.752;4.268;2023-05-07T01:19:34;15.90;99.90
25482;DHT22;13395;50.752;4.268;2023-05-07T01:22:04;15.80;99.90
25482;DHT22;13395;50.752;4.268;2023-05-07T01:24:32;15.80;99.90
25482;DHT22;13395;50.752;4.268;2023-05-07T01:26:58;15.70;99.90
25482;DHT22;13395;50.752;4.268;2023-05-07T01:29:24;15.70;99.90
25482;DHT22;13395;50.752;4.268;2023-05-07T01:31:50;15.70;99.90
25482;DHT22;13395;50.752;4.268;2023-05-07T01:34:16;15.70;99.90
25482;DHT22;13395;50.752;4.268;2023-05-07T01:36:42;15.70;99.90
25482;DHT22;13395;50.752;4.268;2023-05-07T01:39:08;15.60;99.90
25482;DHT22;13395;50.752;4.268;2023-05-07T01:41:34;15.60;99.90
25482;DHT22;13395;50.752;4.268;2023-05-07T01:44:00;15.60;99.90
25482;DHT22;13395;50.752;4.268;2023-05-07T01:46:26;15.50;99.90
25482;DHT22;13395;50.752;4.268;2023-05-07T01:48:51;15.50;99.90
25482;DHT22;13395;50.752;4.268;2023-05-07T01:51:17;15.50;99.90
25482;DHT22;13395;50.752;4.268;2023-05-07T01:53:42;15.50;99.90
25482;DHT22;13395;50.752;4.268;2023-05-07T01:56:09;15.40;99.90
25482;DHT22;13395;50.752;4.268;2023-05-07T01:58:34;15.40;99.90
25482;DHT22;13395;50.752;4.268;2023-05-07T02:01:00;15.40;99.90
25482;DHT22;13395;50.752;4.268;2023-05-07T02:03:25;15.40;99.90
25482;DHT22;13395;50.752;4.268;2023-05-07T02:05:51;15.30;99.90
25482;DHT22;13395;50.752;4.268;2023-05-07T02:08:16;15.40;99.90
25482;DHT22;13395;50.752;4.268;2023-05-07T02:10:42;15.40;99.90
25482;DHT22;13395;50.752;4.268;2023-05-07T02:13:07;15.30;99.90
25482;DHT22;13395;50.752;4.268;2023-05-07T02:15:33;15.30;99.90
25482;DHT22;13395;50.752;4.268;2023-05-07T02:18:03;15.30;99.90
25482;DHT22;13395;50.752;4.268;2023-05-07T02:20:28;15.30;99.90
25482;DHT22;13395;50.752;4.268;2023-05-07T02:22:54;15.30;99.90
25482;DHT22;13395;50.752;4.268;2023-05-07T02:25:20;15.30;99.90
25482;DHT22;13395;50.752;4.268;2023-05-07T02:27:45;15.30;99.90
25482;DHT22;13395;50.752;4.268;2023-05-07T02:30:11;15.20;99.90
25482;DHT22;13395;50.752;4.268;2023-05-07T02:32:36;15.20;99.90
25482;DHT22;13395;50.752;4.268;2023-05-07T02:35:02;15.20;99.90
25482;DHT22;13395;50.752;4.268;2023-05-07T02:37:27;15.30;99.90
25482;DHT22;13395;50.752;4.268;2023-05-07T02:39:53;15.20;99.90
25482;DHT22;13395;50.752;4.268;2023-05-07T02:42:18;15.20;99.90
25482;DHT22;13395;50.752;4.268;2023-05-07T02:44:44;15.20;99.90
25482;DHT22;13395;50.752;4.268;2023-05-07T02:47:09;15.20;99.90
25482;DHT22;13395;50.752;4.268;2023-05-07T02:49:35;15.20;99.90
25482;DHT22;13395;50.752;4.268;2023-05-07T02:52:01;15.20;99.90
25482;DHT22;13395;50.752;4.268;2023-05-07T02:54:26;15.20;99.90
25482;DHT22;13395;50.752;4.268;2023-05-07T02:56:52;15.10;99.90
25482;DHT22;13395;50.752;4.268;2023-05-07T02:59:17;15.20;99.90
25482;DHT22;13395;50.752;4.268;2023-05-07T03:01:43;15.20;99.90
25482;DHT22;13395;50.752;4.268;2023-05-07T03:04:10;15.20;99.90
25482;DHT22;13395;50.752;4.268;2023-05-07T03:06:35;15.20;99.90
25482;DHT22;13395;50.752;4.268;2023-05-07T03:09:01;15.20;99.90
25482;DHT22;13395;50.752;4.268;2023-05-07T03:11:27;15.20;99.90
25482;DHT22;13395;50.752;4.268;2023-05-07T03:13:52;15.20;99.90
25482;DHT22;13395;50.752;4.268;2023-05-07T03:16:18;15.30;99.90
25482;DHT22;13395;50.752;4.268;2023-05-07T03:18:43;15.30;99.90
25482;DHT22;13395;50.752;4.268;2023-05-07T03:21:09;15.40;99.90
25482;DHT22;13395;50.752;4.268;2023-05-07T03:23:34;15.40;99.90
25482;DHT22;13395;50.752;4.268;2023-05-07T03:26:00;15.40;99.90
25482;DHT22;13395;50.752;4.268;2023-05-07T03:28:25;15.50;99.90
25482;DHT22;13395;50.752;4.268;2023-05-07T03:30:51;15.50;99.90
25482;DHT22;13395;50.752;4.268;2023-05-07T03:33:16;15.60;99.90
25482;DHT22;13395;50.752;4.268;2023-05-07T03:35:42;15.60;99.90
25482;DHT22;13395;50.752;4.268;2023-05-07T03:38:07;15.60;99.90
25482;DHT22;13395;50.752;4.268;2023-05-07T03:40:33;15.60;99.90
25482;DHT22;13395;50.752;4.268;2023-05-07T03:42:59;15.60;99.90
25482;DHT22;13395;50.752;4.268;2023-05-07T03:45:25;15.60;99.90
25482;DHT22;13395;50.752;4.268;2023-05-07T03:47:51;15.60;99.90
25482;DHT22;13395;50.752;4.268;2023-05-07T03:50:16;15.50;99.90
25482;DHT22;13395;50.752;4.268;2023-05-07T03:52:42;15.50;99.90
25482;DHT22;13395;50.752;4.268;2023-05-07T03:55:07;15.50;99.90
25482;DHT22;13395;50.752;4.268;2023-05-07T03:57:33;15.50;99.90
25482;DHT22;13395;50.752;4.268;2023-05-07T03:59:58;15.50;99.90
25482;DHT22;13395;50.752;4.268;2023-05-07T04:02:24;15.50;99.90
25482;DHT22;13395;50.752;4.268;2023-05-07T04:04:50;15.60;99.90
25482;DHT22;13395;50.752;4.268;2023-05-07T04:07:15;15.60;99.90
25482;DHT22;13395;50.752;4.268;2023-05-07T04:09:41;15.60;99.90
25482;DHT22;13395;50.752;4.268;2023-05-07T04:12:06;15.60;99.90
25482;DHT22;13395;50.752;4.268;2023-05-07T04:14:32;15.60;99.90
25482;DHT22;13395;50.752;4.268;2023-05-07T04:16:58;15.60;99.90
25482;DHT22;13395;50.752;4.268;2023-05-07T04:19:24;15.60;99.90
25482;DHT22;13395;50.752;4.268;2023-05-07T04:21:49;15.60;99.90
25482;DHT22;13395;50.752;4.268;2023-05-07T04:24:15;15.60;99.90
25482;DHT22;13395;50.752;4.268;2023-05-07T04:26:41;15.60;99.90
25482;DHT22;13395;50.752;4.268;2023-05-07T04:29:06;15.60;99.90
25482;DHT22;13395;50.752;4.268;2023-05-07T04:31:32;15.60;99.90
25482;DHT22;13395;50.752;4.268;2023-05-07T04:33:57;15.60;99.90
25482;DHT22;13395;50.752;4.268;2023-05-07T04:36:23;15.50;99.90
25482;DHT22;13395;50.752;4.268;2023-05-07T04:38:53;15.50;99.90
25482;DHT22;13395;50.752;4.268;2023-05-07T04:41:18;15.50;99.90
25482;DHT22;13395;50.752;4.268;2023-05-07T04:43:44;15.50;99.90
25482;DHT22;13395;50.752;4.268;2023-05-07T04:46:09;15.50;99.90
25482;DHT22;13395;50.752;4.268;2023-05-07T04:48:35;15.50;99.90
25482;DHT22;13395;50.752;4.268;2023-05-07T04:51:00;15.50;99.90
25482;DHT22;13395;50.752;4.268;2023-05-07T04:53:26;15.60;99.90
25482;DHT22;13395;50.752;4.268;2023-05-07T04:55:57;15.70;99.90
25482;DHT22;13395;50.752;4.268;2023-05-07T04:58:23;15.70;99.90
25482;DHT22;13395;50.752;4.268;2023-05-07T05:00:49;15.70;99.90
25482;DHT22;13395;50.752;4.268;2023-05-07T05:03:14;15.70;99.90
25482;DHT22;13395;50.752;4.268;2023-05-07T05:05:40;15.70;99.90
25482;DHT22;13395;50.752;4.268;2023-05-07T05:08:05;15.80;99.90
25482;DHT22;13395;50.752;4.268;2023-05-07T05:10:31;15.90;99.90
25482;DHT22;13395;50.752;4.268;2023-05-07T05:12:57;16.00;99.90
25482;DHT22;13395;50.752;4.268;2023-05-07T05:15:22;16.10;99.90
25482;DHT22;13395;50.752;4.268;2023-05-07T05:17:48;16.10;99.90
25482;DHT22;13395;50.752;4.268;2023-05-07T05:20:13;16.20;99.90
25482;DHT22;13395;50.752;4.268;2023-05-07T05:22:41;16.30;99.90
25482;DHT22;13395;50.752;4.268;2023-05-07T05:25:06;16.40;99.90
25482;DHT22;13395;50.752;4.268;2023-05-07T05:27:32;16.50;99.90
25482;DHT22;13395;50.752;4.268;2023-05-07T05:29:58;16.50;99.90
25482;DHT22;13395;50.752;4.268;2023-05-07T05:32:23;16.60;99.90
25482;DHT22;13395;50.752;4.268;2023-05-07T05:34:48;16.50;99.90
25482;DHT22;13395;50.752;4.268;2023-05-07T05:37:14;16.50;99.90
25482;DHT22;13395;50.752;4.268;2023-05-07T05:39:40;16.50;99.90
25482;DHT22;13395;50.752;4.268;2023-05-07T05:42:06;16.50;99.90
25482;DHT22;13395;50.752;4.268;2023-05-07T05:44:32;16.50;99.90
25482;DHT22;13395;50.752;4.268;2023-05-07T05:46:57;16.50;99.90
25482;DHT22;13395;50.752;4.268;2023-05-07T05:49:24;16.50;99.90
25482;DHT22;13395;50.752;4.268;2023-05-07T05:51:50;16.50;99.90
25482;DHT22;13395;50.752;4.268;2023-05-07T05:54:15;16.60;99.90
25482;DHT22;13395;50.752;4.268;2023-05-07T05:56:41;16.60;99.90
25482;DHT22;13395;50.752;4.268;2023-05-07T05:59:07;16.70;99.90
25482;DHT22;13395;50.752;4.268;2023-05-07T06:01:32;16.70;99.90
25482;DHT22;13395;50.752;4.268;2023-05-07T06:03:58;16.70;99.90
25482;DHT22;13395;50.752;4.268;2023-05-07T06:06:23;16.50;99.90
25482;DHT22;13395;50.752;4.268;2023-05-07T06:08:49;16.50;99.90
25482;DHT22;13395;50.752;4.268;2023-05-07T06:11:14;16.50;99.90
25482;DHT22;13395;50.752;4.268;2023-05-07T06:13:40;16.40;99.90
25482;DHT22;13395;50.752;4.268;2023-05-07T06:16:06;16.50;99.90
25482;DHT22;13395;50.752;4.268;2023-05-07T06:18:31;16.50;99.90
25482;DHT22;13395;50.752;4.268;2023-05-07T06:20:57;16.60;99.90
25482;DHT22;13395;50.752;4.268;2023-05-07T06:23:22;16.70;99.90
25482;DHT22;13395;50.752;4.268;2023-05-07T06:25:48;16.70;99.90
25482;DHT22;13395;50.752;4.268;2023-05-07T06:28:15;16.60;99.90
25482;DHT22;13395;50.752;4.268;2023-05-07T06:30:40;16.60;99.90
25482;DHT22;13395;50.752;4.268;2023-05-07T06:33:06;16.70;99.90
25482;DHT22;13395;50.752;4.268;2023-05-07T06:35:31;16.70;99.90
25482;DHT22;13395;50.752;4.268;2023-05-07T06:37:57;16.60;99.90
25482;DHT22;13395;50.752;4.268;2023-05-07T06:40:22;16.70;99.90
25482;DHT22;13395;50.752;4.268;2023-05-07T06:42:48;16.70;99.90
25482;DHT22;13395;50.752;4.268;2023-05-07T06:45:13;16.80;99.90
25482;DHT22;13395;50.752;4.268;2023-05-07T06:47:39;16.80;99.90
25482;DHT22;13395;50.752;4.268;2023-05-07T06:50:05;16.80;99.90
25482;DHT22;13395;50.752;4.268;2023-05-07T06:52:30;17.00;99.90
25482;DHT22;13395;50.752;4.268;2023-05-07T06:54:56;16.90;99.90
25482;DHT22;13395;50.752;4.268;2023-05-07T06:57:21;17.00;99.90
25482;DHT22;13395;50.752;4.268;2023-05-07T06:59:50;17.00;99.90
25482;DHT22;13395;50.752;4.268;2023-05-07T07:02:15;17.00;99.90
25482;DHT22;13395;50.752;4.268;2023-05-07T07:04:41;17.10;99.90
25482;DHT22;13395;50.752;4.268;2023-05-07T07:07:07;17.20;99.90
25482;DHT22;13395;50.752;4.268;2023-05-07T07:09:32;17.20;99.90
25482;DHT22;13395;50.752;4.268;2023-05-07T07:11:58;17.30;99.90
25482;DHT22;13395;50.752;4.268;2023-05-07T07:14:23;17.30;99.90
25482;DHT22;13395;50.752;4.268;2023-05-07T07:16:49;17.40;99.90
25482;DHT22;13395;50.752;4.268;2023-05-07T07:19:15;17.40;99.90
25482;DHT22;13395;50.752;4.268;2023-05-07T07:21:41;17.40;99.90
25482;DHT22;13395;50.752;4.268;2023-05-07T07:24:06;17.50;99.90
25482;DHT22;13395;50.752;4.268;2023-05-07T07:26:32;17.50;99.90
25482;DHT22;13395;50.752;4.268;2023-05-07T07:28:57;17.40;99.90
25482;DHT22;13395;50.752;4.268;2023-05-07T07:31:23;17.50;99.90
25482;DHT22;13395;50.752;4.268;2023-05-07T07:33:48;17.50;99.90
25482;DHT22;13395;50.752;4.268;2023-05-07T07:36:15;17.50;99.90
25482;DHT22;13395;50.752;4.268;2023-05-07T07:38:41;17.50;99.90
25482;DHT22;13395;50.752;4.268;2023-05-07T07:41:07;17.50;99.90
25482;DHT22;13395;50.752;4.268;2023-05-07T07:43:33;17.50;99.90
25482;DHT22;13395;50.752;4.268;2023-05-07T07:45:59;17.50;99.90
25482;DHT22;13395;50.752;4.268;2023-05-07T07:48:24;17.60;99.90
25482;DHT22;13395;50.752;4.268;2023-05-07T07:50:50;17.50;99.90
25482;DHT22;13395;50.752;4.268;2023-05-07T07:53:16;17.50;99.90
25482;DHT22;13395;50.752;4.268;2023-05-07T07:55:42;17.60;99.90
25482;DHT22;13395;50.752;4.268;2023-05-07T07:58:07;17.60;99.90
25482;DHT22;13395;50.752;4.268;2023-05-07T08:00:33;17.70;99.90
25482;DHT22;13395;50.752;4.268;2023-05-07T08:02:58;17.70;99.90
25482;DHT22;13395;50.752;4.268;2023-05-07T08:05:24;17.80;99.90
25482;DHT22;13395;50.752;4.268;2023-05-07T08:07:50;17.80;99.90
25482;DHT22;13395;50.752;4.268;2023-05-07T08:10:17;17.90;99.90
25482;DHT22;13395;50.752;4.268;2023-05-07T08:12:47;17.90;99.90
25482;DHT22;13395;50.752;4.268;2023-05-07T08:15:12;18.00;99.90
25482;DHT22;13395;50.752;4.268;2023-05-07T08:17:38;18.10;99.90
25482;DHT22;13395;50.752;4.268;2023-05-07T08:20:04;18.00;99.90
25482;DHT22;13395;50.752;4.268;2023-05-07T08:22:30;18.00;99.90
25482;DHT22;13395;50.752;4.268;2023-05-07T08:24:55;18.00;99.90
25482;DHT22;13395;50.752;4.268;2023-05-07T08:27:21;18.00;99.90
25482;DHT22;13395;50.752;4.268;2023-05-07T08:29:46;17.90;99.90
25482;DHT22;13395;50.752;4.268;2023-05-07T08:32:13;17.90;99.90
25482;DHT22;13395;50.752;4.268;2023-05-07T08:34:38;17.90;99.90
25482;DHT22;13395;50.752;4.268;2023-05-07T08:37:04;17.80;99.90
25482;DHT22;13395;50.752;4.268;2023-05-07T08:39:29;17.80;99.90
25482;DHT22;13395;50.752;4.268;2023-05-07T08:41:55;18.00;99.90
25482;DHT22;13395;50.752;4.268;2023-05-07T08:44:22;18.00;99.90
25482;DHT22;13395;50.752;4.268;2023-05-07T08:46:48;18.10;99.90
25482;DHT22;13395;50.752;4.268;2023-05-07T08:49:16;18.20;99.90
25482;DHT22;13395;50.752;4.268;2023-05-07T08:51:42;18.30;99.90
25482;DHT22;13395;50.752;4.268;2023-05-07T08:54:07;18.40;99.90
25482;DHT22;13395;50.752;4.268;2023-05-07T08:56:34;18.60;99.90
25482;DHT22;13395;50.752;4.268;2023-05-07T08:58:59;18.70;99.90
25482;DHT22;13395;50.752;4.268;2023-05-07T09:01:25;18.90;99.90
25482;DHT22;13395;50.752;4.268;2023-05-07T09:03:51;18.90;99.90
25482;DHT22;13395;50.752;4.268;2023-05-07T09:06:17;19.00;99.90
25482;DHT22;13395;50.752;4.268;2023-05-07T09:08:48;19.10;99.90
25482;DHT22;13395;50.752;4.268;2023-05-07T09:11:14;19.10;99.90
25482;DHT22;13395;50.752;4.268;2023-05-07T09:13:39;19.20;99.90
25482;DHT22;13395;50.752;4.268;2023-05-07T09:16:11;19.40;99.90
25482;DHT22;13395;50.752;4.268;2023-05-07T09:18:41;19.40;99.90
25482;DHT22;13395;50.752;4.268;2023-05-07T09:21:09;19.60;99.90
25482;DHT22;13395;50.752;4.268;2023-05-07T09:23:35;19.60;99.90
25482;DHT22;13395;50.752;4.268;2023-05-07T09:26:00;19.60;99.90
25482;DHT22;13395;50.752;4.268;2023-05-07T09:28:27;19.50;99.90
25482;DHT22;13395;50.752;4.268;2023-05-07T09:30:52;19.50;99.90
25482;DHT22;13395;50.752;4.268;2023-05-07T09:33:18;19.50;99.90
25482;DHT22;13395;50.752;4.268;2023-05-07T09:35:43;19.40;99.90
25482;DHT22;13395;50.752;4.268;2023-05-07T09:38:09;19.30;99.90
25482;DHT22;13395;50.752;4.268;2023-05-07T09:40:34;19.40;99.90
25482;DHT22;13395;50.752;4.268;2023-05-07T09:43:10;19.30;99.90
25482;DHT22;13395;50.752;4.268;2023-05-07T09:45:36;19.30;99.90
25482;DHT22;13395;50.752;4.268;2023-05-07T09:48:02;19.30;99.90
25482;DHT22;13395;50.752;4.268;2023-05-07T09:50:36;19.20;99.90
25482;DHT22;13395;50.752;4.268;2023-05-07T09:53:04;19.30;99.90
25482;DHT22;13395;50.752;4.268;2023-05-07T09:55:30;19.40;99.90
25482;DHT22;13395;50.752;4.268;2023-05-07T09:57:56;19.40;99.90
25482;DHT22;13395;50.752;4.268;2023-05-07T10:00:22;19.40;99.90
25482;DHT22;13395;50.752;4.268;2023-05-07T10:02:49;19.50;99.90
25482;DHT22;13395;50.752;4.268;2023-05-07T10:05:15;19.60;99.90
25482;DHT22;13395;50.752;4.268;2023-05-07T10:07:40;19.60;99.90
25482;DHT22;13395;50.752;4.268;2023-05-07T10:10:06;19.50;99.90
25482;DHT22;13395;50.752;4.268;2023-05-07T10:12:32;19.60;99.90
25482;DHT22;13395;50.752;4.268;2023-05-07T10:15:10;19.60;99.90
25482;DHT22;13395;50.752;4.268;2023-05-07T10:17:36;19.60;99.90
25482;DHT22;13395;50.752;4.268;2023-05-07T10:20:02;19.80;99.90
25482;DHT22;13395;50.752;4.268;2023-05-07T10:22:28;19.80;99.90
25482;DHT22;13395;50.752;4.268;2023-05-07T10:24:54;19.80;99.90
25482;DHT22;13395;50.752;4.268;2023-05-07T10:27:21;19.90;99.90
25482;DHT22;13395;50.752;4.268;2023-05-07T10:34:42;19.70;99.90
25482;DHT22;13395;50.752;4.268;2023-05-07T10:37:08;19.70;99.90
25482;DHT22;13395;50.752;4.268;2023-05-07T10:39:34;19.70;99.90
25482;DHT22;13395;50.752;4.268;2023-05-07T10:42:09;19.90;99.90
25482;DHT22;13395;50.752;4.268;2023-05-07T10:44:35;20.00;99.90
25482;DHT22;13395;50.752;4.268;2023-05-07T10:47:06;20.10;99.90
25482;DHT22;13395;50.752;4.268;2023-05-07T10:49:34;20.10;99.90
25482;DHT22;13395;50.752;4.268;2023-05-07T10:52:12;20.20;99.90
25482;DHT22;13395;50.752;4.268;2023-05-07T10:54:41;20.30;99.90
25482;DHT22;13395;50.752;4.268;2023-05-07T10:59:51;20.30;99.90
25482;DHT22;13395;50.752;4.268;2023-05-07T11:02:17;20.20;99.90
25482;DHT22;13395;50.752;4.268;2023-05-07T11:04:42;20.10;99.90
25482;DHT22;13395;50.752;4.268;2023-05-07T11:15:05;20.50;99.90
25482;DHT22;13395;50.752;4.268;2023-05-07T11:17:31;20.60;99.90
25482;DHT22;13395;50.752;4.268;2023-05-07T11:20:00;20.70;99.90
25482;DHT22;13395;50.752;4.268;2023-05-07T11:25:02;20.90;99.90
25482;DHT22;13395;50.752;4.268;2023-05-07T11:27:27;21.00;99.90
25482;DHT22;13395;50.752;4.268;2023-05-07T11:29:53;21.00;99.90
25482;DHT22;13395;50.752;4.268;2023-05-07T11:32:25;20.90;99.90
25482;DHT22;13395;50.752;4.268;2023-05-07T11:34:51;21.00;99.90
25482;DHT22;13395;50.752;4.268;2023-05-07T11:37:18;21.20;99.90
25482;DHT22;13395;50.752;4.268;2023-05-07T11:39:44;21.40;99.90
25482;DHT22;13395;50.752;4.268;2023-05-07T11:42:25;21.50;99.90
25482;DHT22;13395;50.752;4.268;2023-05-07T11:44:50;21.40;99.90
25482;DHT22;13395;50.752;4.268;2023-05-07T11:47:19;21.40;99.90
25482;DHT22;13395;50.752;4.268;2023-05-07T11:49:48;21.50;99.90
25482;DHT22;13395;50.752;4.268;2023-05-07T11:52:14;21.60;99.90
25482;DHT22;13395;50.752;4.268;2023-05-07T11:54:40;21.70;99.90
25482;DHT22;13395;50.752;4.268;2023-05-07T11:57:05;21.70;99.90
25482;DHT22;13395;50.752;4.268;2023-05-07T11:59:41;21.70;99.90
25482;DHT22;13395;50.752;4.268;2023-05-07T12:02:09;21.80;99.90
25482;DHT22;13395;50.752;4.268;2023-05-07T12:04:35;21.80;99.90
25482;DHT22;13395;50.752;4.268;2023-05-07T12:07:01;21.90;99.90
25482;DHT22;13395;50.752;4.268;2023-05-07T12:09:26;21.90;99.90
25482;DHT22;13395;50.752;4.268;2023-05-07T12:11:52;21.90;99.90
25482;DHT22;13395;50.752;4.268;2023-05-07T12:14:18;22.20;99.90
25482;DHT22;13395;50.752;4.268;2023-05-07T12:16:43;22.20;99.90
25482;DHT22;13395;50.752;4.268;2023-05-07T12:19:10;22.20;99.90
25482;DHT22;13395;50.752;4.268;2023-05-07T12:21:38;22.20;99.90
25482;DHT22;13395;50.752;4.268;2023-05-07T12:24:03;22.30;99.90
25482;DHT22;13395;50.752;4.268;2023-05-07T12:26:29;22.30;99.90
25482;DHT22;13395;50.752;4.268;2023-05-07T12:28:54;22.20;99.90
25482;DHT22;13395;50.752;4.268;2023-05-07T12:31:22;22.00;99.90
25482;DHT22;13395;50.752;4.268;2023-05-07T12:33:47;22.00;99.90
25482;DHT22;13395;50.752;4.268;2023-05-07T12:36:13;22.00;99.90
25482;DHT22;13395;50.752;4.268;2023-05-07T12:38:39;22.10;99.90
25482;DHT22;13395;50.752;4.268;2023-05-07T12:41:09;22.10;99.90
25482;DHT22;13395;50.752;4.268;2023-05-07T12:43:36;22.00;99.90
25482;DHT22;13395;50.752;4.268;2023-05-07T12:46:05;21.90;99.90
25482;DHT22;13395;50.752;4.268;2023-05-07T12:48:31;21.90;99.90
25482;DHT22;13395;50.752;4.268;2023-05-07T12:50:58;21.70;99.90
25482;DHT22;13395;50.752;4.268;2023-05-07T12:53:25;21.50;99.90
25482;DHT22;13395;50.752;4.268;2023-05-07T12:55:52;21.40;99.90
25482;DHT22;13395;50.752;4.268;2023-05-07T12:58:36;21.40;99.90
25482;DHT22;13395;50.752;4.268;2023-05-07T13:01:05;21.40;99.90
25482;DHT22;13395;50.752;4.268;2023-05-07T13:03:32;21.40;99.90
25482;DHT22;13395;50.752;4.268;2023-05-07T13:06:05;21.40;99.90
25482;DHT22;13395;50.752;4.268;2023-05-07T13:08:31;21.40;99.90
25482;DHT22;13395;50.752;4.268;2023-05-07T13:10:58;21.60;99.90
25482;DHT22;13395;50.752;4.268;2023-05-07T13:13:24;21.70;99.90
25482;DHT22;13395;50.752;4.268;2023-05-07T13:15:51;21.60;99.90
25482;DHT22;13395;50.752;4.268;2023-05-07T13:18:16;21.70;99.90
25482;DHT22;13395;50.752;4.268;2023-05-07T13:20:42;21.60;99.90
25482;DHT22;13395;50.752;4.268;2023-05-07T13:23:07;21.60;99.90
25482;DHT22;13395;50.752;4.268;2023-05-07T13:25:33;21.50;99.90
25482;DHT22;13395;50.752;4.268;2023-05-07T13:27:58;21.50;99.90
25482;DHT22;13395;50.752;4.268;2023-05-07T13:30:24;21.30;99.90
25482;DHT22;13395;50.752;4.268;2023-05-07T13:32:49;21.30;99.90
25482;DHT22;13395;50.752;4.268;2023-05-07T13:35:17;21.30;99.90
25482;DHT22;13395;50.752;4.268;2023-05-07T13:37:42;21.30;99.90
25482;DHT22;13395;50.752;4.268;2023-05-07T13:40:08;21.40;99.90
25482;DHT22;13395;50.752;4.268;2023-05-07T13:42:34;21.30;99.90
25482;DHT22;13395;50.752;4.268;2023-05-07T13:44:59;21.30;99.90
25482;DHT22;13395;50.752;4.268;2023-05-07T13:47:25;21.30;99.90
25482;DHT22;13395;50.752;4.268;2023-05-07T13:49:51;21.30;99.90
25482;DHT22;13395;50.752;4.268;2023-05-07T13:52:17;21.50;99.90
25482;DHT22;13395;50.752;4.268;2023-05-07T13:54:42;21.50;99.90
25482;DHT22;13395;50.752;4.268;2023-05-07T13:57:08;21.50;99.90
25482;DHT22;13395;50.752;4.268;2023-05-07T13:59:34;21.60;99.90
25482;DHT22;13395;50.752;4.268;2023-05-07T14:01:59;21.60;99.90
25482;DHT22;13395;50.752;4.268;2023-05-07T14:04:25;21.60;99.90
25482;DHT22;13395;50.752;4.268;2023-05-07T14:06:51;21.50;99.90
25482;DHT22;13395;50.752;4.268;2023-05-07T14:09:16;21.50;99.90
25482;DHT22;13395;50.752;4.268;2023-05-07T14:11:42;21.40;99.90
25482;DHT22;13395;50.752;4.268;2023-05-07T14:14:08;21.20;99.90
25482;DHT22;13395;50.752;4.268;2023-05-07T14:16:36;21.00;99.90
25482;DHT22;13395;50.752;4.268;2023-05-07T14:19:01;21.00;99.90
25482;DHT22;13395;50.752;4.268;2023-05-07T14:21:27;21.00;99.90
25482;DHT22;13395;50.752;4.268;2023-05-07T14:23:52;21.00;99.90
25482;DHT22;13395;50.752;4.268;2023-05-07T14:26:18;21.10;99.90
25482;DHT22;13395;50.752;4.268;2023-05-07T14:28:43;21.10;99.90
25482;DHT22;13395;50.752;4.268;2023-05-07T14:31:11;21.00;99.90
25482;DHT22;13395;50.752;4.268;2023-05-07T14:33:37;21.10;99.90
25482;DHT22;13395;50.752;4.268;2023-05-07T14:36:02;21.10;99.90
25482;DHT22;13395;50.752;4.268;2023-05-07T14:38:29;21.20;99.90
25482;DHT22;13395;50.752;4.268;2023-05-07T14:40:55;21.20;99.90
25482;DHT22;13395;50.752;4.268;2023-05-07T14:43:21;21.10;99.90
25482;DHT22;13395;50.752;4.268;2023-05-07T14:45:47;21.10;99.90
25482;DHT22;13395;50.752;4.268;2023-05-07T14:48:12;21.10;99.90
25482;DHT22;13395;50.752;4.268;2023-05-07T14:50:40;21.10;99.90
25482;DHT22;13395;50.752;4.268;2023-05-07T14:53:06;21.00;99.90
25482;DHT22;13395;50.752;4.268;2023-05-07T14:55:31;21.10;99.90
25482;DHT22;13395;50.752;4.268;2023-05-07T14:57:57;20.90;99.90
25482;DHT22;13395;50.752;4.268;2023-05-07T15:00:22;20.90;99.90
25482;DHT22;13395;50.752;4.268;2023-05-07T15:02:48;20.80;99.90
25482;DHT22;13395;50.752;4.268;2023-05-07T15:05:13;20.80;99.90
25482;DHT22;13395;50.752;4.268;2023-05-07T15:07:40;20.90;99.90
25482;DHT22;13395;50.752;4.268;2023-05-07T15:10:05;20.80;99.90
25482;DHT22;13395;50.752;4.268;2023-05-07T15:12:31;21.00;99.90
25482;DHT22;13395;50.752;4.268;2023-05-07T15:14:56;21.10;99.90
25482;DHT22;13395;50.752;4.268;2023-05-07T15:17:22;21.20;99.90
25482;DHT22;13395;50.752;4.268;2023-05-07T15:19:47;21.20;99.90
25482;DHT22;13395;50.752;4.268;2023-05-07T15:22:13;21.20;99.90
25482;DHT22;13395;50.752;4.268;2023-05-07T15:24:38;21.20;99.90
25482;DHT22;13395;50.752;4.268;2023-05-07T15:27:04;21.10;99.90
25482;DHT22;13395;50.752;4.268;2023-05-07T15:29:29;21.10;99.90
25482;DHT22;13395;50.752;4.268;2023-05-07T15:31:55;21.00;99.90
25482;DHT22;13395;50.752;4.268;2023-05-07T15:34:21;20.90;99.90
25482;DHT22;13395;50.752;4.268;2023-05-07T15:36:47;20.80;99.90
25482;DHT22;13395;50.752;4.268;2023-05-07T15:39:12;20.80;99.90
25482;DHT22;13395;50.752;4.268;2023-05-07T15:41:38;20.80;99.90